sensor_id;sensor_type;location;lat;lon;timestamp;pressure;altitude;pressure_sealevel;temperature;humidity
48644;BME280;34928;37.302;-121.984;2022-08-01T00:06:07;100799.0;;;31.51;30.79
48644;BME280;34928;37.302;-121.984;2022-08-01T00:16:12;100802.0;;;31.39;30.76
48644;BME280;34928;37.302;-121.984;2022-08-01T00:26:18;100807.0;;;31.64;29.84
48644;BME280;34928;37.302;-121.984;2022-08-01T00:36:22;100809.0;;;31.66;30.27
48644;BME280;34928;37.302;-121.984;2022-08-01T00:46:27;100810.0;;;31.71;29.78
48644;BME280;34928;37.302;-121.984;2022-08-01T00:56:32;100812.0;;;31.72;29.59
48644;BME280;34928;37.302;-121.984;2022-08-01T01:06:44;100811.0;;;31.69;29.42
48644;BME280;34928;37.302;-121.984;2022-08-01T01:16:54;100806.0;;;31.55;29.29
48644;BME280;34928;37.302;-121.984;2022-08-01T01:27:08;100806.0;;;31.02;30.22
48644;BME280;34928;37.302;-121.984;2022-08-01T01:37:20;100807.0;;;30.80;30.49
48644;BME280;34928;37.302;-121.984;2022-08-01T01:47:28;100809.0;;;30.66;30.75
48644;BME280;34928;37.302;-121.984;2022-08-01T01:57:33;100829.0;;;30.86;30.19
48644;BME280;34928;37.302;-121.984;2022-08-01T02:07:42;100844.0;;;30.64;29.84
48644;BME280;34928;37.302;-121.984;2022-08-01T02:17:49;100857.0;;;30.45;29.82
48644;BME280;34928;37.302;-121.984;2022-08-01T02:28:03;100858.0;;;30.47;29.89
48644;BME280;34928;37.302;-121.984;2022-08-01T02:38:10;100846.0;;;30.46;30.02
48644;BME280;34928;37.302;-121.984;2022-08-01T02:48:18;100849.0;;;30.30;30.28
48644;BME280;34928;37.302;-121.984;2022-08-01T02:58:22;100852.0;;;30.36;30.05
48644;BME280;34928;37.302;-121.984;2022-08-01T03:08:28;100850.0;;;30.18;30.04
48644;BME280;34928;37.302;-121.984;2022-08-01T03:18:33;100856.0;;;30.26;30.30
48644;BME280;34928;37.302;-121.984;2022-08-01T03:28:39;100861.0;;;29.99;30.18
48644;BME280;34928;37.302;-121.984;2022-08-01T03:38:48;100874.0;;;30.10;30.38
48644;BME280;34928;37.302;-121.984;2022-08-01T03:48:56;100872.0;;;29.65;30.59
48644;BME280;34928;37.302;-121.984;2022-08-01T03:59:02;100891.0;;;29.61;30.81
48644;BME280;34928;37.302;-121.984;2022-08-01T04:09:08;100910.0;;;29.48;31.15
48644;BME280;34928;37.302;-121.984;2022-08-01T04:19:12;100907.0;;;29.39;31.28
48644;BME280;34928;37.302;-121.984;2022-08-01T04:29:18;100925.0;;;29.51;31.33
48644;BME280;34928;37.302;-121.984;2022-08-01T04:39:24;100949.0;;;29.40;31.07
48644;BME280;34928;37.302;-121.984;2022-08-01T04:49:33;100957.0;;;28.99;31.38
48644;BME280;34928;37.302;-121.984;2022-08-01T04:59:41;100954.0;;;29.36;31.41
48644;BME280;34928;37.302;-121.984;2022-08-01T05:09:47;100958.0;;;29.33;31.69
48644;BME280;34928;37.302;-121.984;2022-08-01T05:19:52;100973.0;;;29.62;31.46
48644;BME280;34928;37.302;-121.984;2022-08-01T05:29:57;100996.0;;;29.36;31.16
48644;BME280;34928;37.302;-121.984;2022-08-01T05:40:03;101001.0;;;29.52;31.03
48644;BME280;34928;37.302;-121.984;2022-08-01T05:50:08;100999.0;;;30.02;30.93
48644;BME280;34928;37.302;-121.984;2022-08-01T06:00:13;101000.0;;;29.89;30.68
48644;BME280;34928;37.302;-121.984;2022-08-01T06:10:17;101002.0;;;29.97;30.56
48644;BME280;34928;37.302;-121.984;2022-08-01T06:20:22;100998.0;;;29.75;30.63
48644;BME280;34928;37.302;-121.984;2022-08-01T06:30:27;101000.0;;;29.78;30.59
48644;BME280;34928;37.302;-121.984;2022-08-01T06:40:32;100993.0;;;29.82;30.47
48644;BME280;34928;37.302;-121.984;2022-08-01T06:41:42;100993.0;;;29.77;30.52
48644;BME280;34928;37.302;-121.984;2022-08-01T06:51:48;100992.0;;;30.19;30.53
48644;BME280;34928;37.302;-121.984;2022-08-01T07:01:52;100991.0;;;30.21;30.38
48644;BME280;34928;37.302;-121.984;2022-08-01T07:11:57;100991.0;;;30.02;30.32
48644;BME280;34928;37.302;-121.984;2022-08-01T07:22:02;100977.0;;;29.79;30.20
48644;BME280;34928;37.302;-121.984;2022-08-01T07:32:07;100967.0;;;30.04;30.21
48644;BME280;34928;37.302;-121.984;2022-08-01T07:34:17;100966.0;;;29.76;30.21
48644;BME280;34928;37.302;-121.984;2022-08-01T07:44:22;100943.0;;;29.73;30.27
48644;BME280;34928;37.302;-121.984;2022-08-01T07:54:27;100924.0;;;29.62;30.34
48644;BME280;34928;37.302;-121.984;2022-08-01T08:04:32;100917.0;;;29.71;30.35
48644;BME280;34928;37.302;-121.984;2022-08-01T08:14:37;100910.0;;;29.99;30.39
48644;BME280;34928;37.302;-121.984;2022-08-01T08:24:43;100924.0;;;30.26;30.36
48644;BME280;34928;37.302;-121.984;2022-08-01T08:34:47;100927.0;;;29.99;30.38
48644;BME280;34928;37.302;-121.984;2022-08-01T08:44:52;100931.0;;;30.01;30.31
48644;BME280;34928;37.302;-121.984;2022-08-01T08:54:58;100947.0;;;29.91;30.38
48644;BME280;34928;37.302;-121.984;2022-08-01T09:05:03;100956.0;;;29.65;30.34
48644;BME280;34928;37.302;-121.984;2022-08-01T09:15:08;100947.0;;;29.62;30.33
48644;BME280;34928;37.302;-121.984;2022-08-01T09:25:12;100935.0;;;29.68;30.51
48644;BME280;34928;37.302;-121.984;2022-08-01T09:35:26;100928.0;;;29.93;30.56
48644;BME280;34928;37.302;-121.984;2022-08-01T09:45:33;100928.0;;;29.61;30.59
48644;BME280;34928;37.302;-121.984;2022-08-01T09:55:38;100951.0;;;29.68;30.56
48644;BME280;34928;37.302;-121.984;2022-08-01T10:05:42;100957.0;;;29.92;30.60
48644;BME280;34928;37.302;-121.984;2022-08-01T10:15:47;100964.0;;;29.87;30.57
48644;BME280;34928;37.302;-121.984;2022-08-01T10:25:54;100963.0;;;29.38;30.58
48644;BME280;34928;37.302;-121.984;2022-08-01T10:35:58;100962.0;;;29.80;30.61
48644;BME280;34928;37.302;-121.984;2022-08-01T10:46:03;100954.0;;;29.59;30.63
48644;BME280;34928;37.302;-121.984;2022-08-01T10:56:07;100966.0;;;29.58;30.63
48644;BME280;34928;37.302;-121.984;2022-08-01T11:06:17;100984.0;;;29.76;30.69
48644;BME280;34928;37.302;-121.984;2022-08-01T11:16:31;100981.0;;;29.30;30.70
48644;BME280;34928;37.302;-121.984;2022-08-01T11:26:37;100989.0;;;29.74;30.74
48644;BME280;34928;37.302;-121.984;2022-08-01T11:36:42;100996.0;;;29.71;30.74
48644;BME280;34928;37.302;-121.984;2022-08-01T11:46:49;101004.0;;;29.72;30.69
48644;BME280;34928;37.302;-121.984;2022-08-01T11:56:56;101008.0;;;29.24;30.68
48644;BME280;34928;37.302;-121.984;2022-08-01T12:07:12;101018.0;;;29.19;30.75
48644;BME280;34928;37.302;-121.984;2022-08-01T12:17:17;101009.0;;;29.64;30.76
48644;BME280;34928;37.302;-121.984;2022-08-01T12:27:27;100999.0;;;29.37;30.81
48644;BME280;34928;37.302;-121.984;2022-08-01T12:37:34;101002.0;;;29.61;30.82
48644;BME280;34928;37.302;-121.984;2022-08-01T12:47:38;101003.0;;;29.55;30.93
48644;BME280;34928;37.302;-121.984;2022-08-01T12:57:44;100991.0;;;29.65;30.81
48644;BME280;34928;37.302;-121.984;2022-08-01T13:07:49;100995.0;;;29.60;30.87
48644;BME280;34928;37.302;-121.984;2022-08-01T13:17:54;100999.0;;;29.62;30.81
48644;BME280;34928;37.302;-121.984;2022-08-01T13:38:17;100998.0;;;29.34;30.91
48644;BME280;34928;37.302;-121.984;2022-08-01T13:48:22;100997.0;;;29.47;30.99
48644;BME280;34928;37.302;-121.984;2022-08-01T13:58:27;100995.0;;;29.47;31.05
48644;BME280;34928;37.302;-121.984;2022-08-01T14:08:32;100986.0;;;28.95;31.08
48644;BME280;34928;37.302;-121.984;2022-08-01T14:18:37;100994.0;;;29.48;31.04
48644;BME280;34928;37.302;-121.984;2022-08-01T14:28:42;100995.0;;;29.50;31.02
48644;BME280;34928;37.302;-121.984;2022-08-01T14:38:48;101008.0;;;29.46;31.06
48644;BME280;34928;37.302;-121.984;2022-08-01T14:48:52;101015.0;;;29.49;31.09
48644;BME280;34928;37.302;-121.984;2022-08-01T14:58:57;101016.0;;;29.47;31.22
48644;BME280;34928;37.302;-121.984;2022-08-01T15:09:03;101007.0;;;29.48;31.10
48644;BME280;34928;37.302;-121.984;2022-08-01T15:19:07;100991.0;;;29.39;31.37
48644;BME280;34928;37.302;-121.984;2022-08-01T15:29:12;101007.0;;;29.42;31.26
48644;BME280;34928;37.302;-121.984;2022-08-01T15:39:17;101007.0;;;29.46;31.05
48644;BME280;34928;37.302;-121.984;2022-08-01T15:49:22;101015.0;;;29.50;31.21
48644;BME280;34928;37.302;-121.984;2022-08-01T15:59:27;101019.0;;;29.49;31.12
48644;BME280;34928;37.302;-121.984;2022-08-01T16:09:33;101012.0;;;29.26;31.08
48644;BME280;34928;37.302;-121.984;2022-08-01T16:19:37;101018.0;;;29.48;30.95
48644;BME280;34928;37.302;-121.984;2022-08-01T16:29:42;101020.0;;;29.45;30.95
48644;BME280;34928;37.302;-121.984;2022-08-01T16:39:47;101029.0;;;29.44;31.01
48644;BME280;34928;37.302;-121.984;2022-08-01T16:49:52;101028.0;;;28.93;31.05
48644;BME280;34928;37.302;-121.984;2022-08-01T16:59:57;101028.0;;;29.44;30.98
48644;BME280;34928;37.302;-121.984;2022-08-01T17:10:02;101027.0;;;29.25;30.90
48644;BME280;34928;37.302;-121.984;2022-08-01T17:20:08;101028.0;;;29.23;31.07
48644;BME280;34928;37.302;-121.984;2022-08-01T17:30:12;101035.0;;;29.51;30.91
48644;BME280;34928;37.302;-121.984;2022-08-01T17:40:17;101042.0;;;29.65;31.01
48644;BME280;34928;37.302;-121.984;2022-08-01T17:50:22;101040.0;;;29.71;30.96
48644;BME280;34928;37.302;-121.984;2022-08-01T18:00:27;101042.0;;;29.67;30.54
48644;BME280;34928;37.302;-121.984;2022-08-01T18:10:32;101031.0;;;29.50;30.78
48644;BME280;34928;37.302;-121.984;2022-08-01T18:20:37;101036.0;;;29.55;31.38
48644;BME280;34928;37.302;-121.984;2022-08-01T18:30:42;101023.0;;;29.57;30.86
48644;BME280;34928;37.302;-121.984;2022-08-01T18:40:47;101014.0;;;29.23;31.62
48644;BME280;34928;37.302;-121.984;2022-08-01T18:50:52;101011.0;;;29.92;31.11
48644;BME280;34928;37.302;-121.984;2022-08-01T19:00:57;101004.0;;;29.77;31.18
48644;BME280;34928;37.302;-121.984;2022-08-01T19:11:02;101004.0;;;29.84;31.25
48644;BME280;34928;37.302;-121.984;2022-08-01T19:21:07;100994.0;;;30.09;31.21
48644;BME280;34928;37.302;-121.984;2022-08-01T19:31:13;100982.0;;;30.01;31.11
48644;BME280;34928;37.302;-121.984;2022-08-01T19:41:18;100980.0;;;29.86;31.12
48644;BME280;34928;37.302;-121.984;2022-08-01T19:51:22;100966.0;;;30.40;31.16
48644;BME280;34928;37.302;-121.984;2022-08-01T20:01:28;100964.0;;;30.02;31.21
48644;BME280;34928;37.302;-121.984;2022-08-01T20:11:32;100961.0;;;30.08;30.94
48644;BME280;34928;37.302;-121.984;2022-08-01T20:21:37;100956.0;;;30.14;31.06
48644;BME280;34928;37.302;-121.984;2022-08-01T20:31:48;100944.0;;;30.35;31.24
48644;BME280;34928;37.302;-121.984;2022-08-01T20:41:53;100946.0;;;30.40;31.42
48644;BME280;34928;37.302;-121.984;2022-08-01T20:51:57;100941.0;;;30.50;31.55
48644;BME280;34928;37.302;-121.984;2022-08-01T21:02:07;100925.0;;;30.60;31.59
48644;BME280;34928;37.302;-121.984;2022-08-01T21:12:26;100913.0;;;30.77;31.45
48644;BME280;34928;37.302;-121.984;2022-08-01T21:22:36;100910.0;;;30.92;31.12
48644;BME280;34928;37.302;-121.984;2022-08-01T21:32:42;100901.0;;;30.76;30.75
48644;BME280;34928;37.302;-121.984;2022-08-01T21:42:53;100896.0;;;30.87;30.18
48644;BME280;34928;37.302;-121.984;2022-08-01T21:53:06;100887.0;;;30.82;29.66
48644;BME280;34928;37.302;-121.984;2022-08-01T22:03:21;100882.0;;;30.95;29.32
48644;BME280;34928;37.302;-121.984;2022-08-01T22:13:27;100879.0;;;31.14;28.39
48644;BME280;34928;37.302;-121.984;2022-08-01T22:23:35;100882.0;;;31.24;27.97
48644;BME280;34928;37.302;-121.984;2022-08-01T22:33:42;100879.0;;;31.29;27.03
48644;BME280;34928;37.302;-121.984;2022-08-01T22:43:55;100871.0;;;31.12;26.41
48644;BME280;34928;37.302;-121.984;2022-08-01T22:54:06;100851.0;;;31.25;27.00
48644;BME280;34928;37.302;-121.984;2022-08-01T23:04:19;100838.0;;;31.44;27.45
48644;BME280;34928;37.302;-121.984;2022-08-01T23:14:22;100832.0;;;31.64;26.68
48644;BME280;34928;37.302;-121.984;2022-08-01T23:24:29;100829.0;;;31.87;26.37
48644;BME280;34928;37.302;-121.984;2022-08-01T23:34:32;100821.0;;;31.62;26.12
48644;BME280;34928;37.302;-121.984;2022-08-01T23:44:37;100825.0;;;32.21;24.65
48644;BME280;34928;37.302;-121.984;2022-08-01T23:54:42;100815.0;;;31.73;25.78
